createdAt,value
2017-05-25T00:00:00.819Z,15.10
2017-05-25T00:02:30.017Z,15.10
2017-05-25T00:04:59.232Z,15.10
2017-05-25T00:07:28.424Z,15.10
2017-05-25T00:09:57.619Z,15.10
2017-05-25T00:12:26.834Z,15.10
2017-05-25T00:14:56.172Z,15.20
2017-05-25T00:17:25.402Z,15.20
2017-05-25T00:19:54.635Z,15.20
2017-05-25T00:22:23.896Z,15.20
2017-05-25T00:24:53.120Z,15.20
2017-05-25T00:27:22.313Z,15.10
2017-05-25T00:29:52.224Z,15.00
2017-05-25T00:32:21.437Z,15.00
2017-05-25T00:34:50.634Z,15.10
2017-05-25T00:37:19.943Z,15.00
2017-05-25T00:39:49.151Z,15.10
2017-05-25T00:42:18.443Z,15.10
2017-05-25T00:44:47.643Z,15.10
2017-05-25T00:47:16.844Z,15.20
2017-05-25T00:49:46.067Z,15.20
2017-05-25T00:52:15.261Z,15.10
2017-05-25T00:54:44.479Z,15.10
2017-05-25T00:57:13.682Z,15.10
2017-05-25T00:59:42.896Z,15.00
2017-05-25T01:02:12.103Z,15.00
2017-05-25T01:04:41.316Z,15.00
2017-05-25T01:07:11.215Z,15.00
2017-05-25T01:09:40.459Z,15.00
2017-05-25T01:12:09.663Z,15.00
2017-05-25T01:14:38.863Z,14.90
2017-05-25T01:17:08.146Z,15.00
2017-05-25T01:19:37.348Z,15.00
2017-05-25T01:22:06.239Z,15.00
2017-05-25T01:24:35.446Z,15.00
2017-05-25T01:27:04.649Z,14.90
2017-05-25T01:29:33.855Z,14.90
2017-05-25T01:32:03.059Z,14.80
2017-05-25T01:34:32.284Z,14.80
2017-05-25T01:37:02.171Z,14.70
2017-05-25T01:39:31.396Z,14.60
2017-05-25T01:42:00.595Z,14.40
2017-05-25T01:44:29.811Z,14.30
2017-05-25T01:46:59.020Z,14.20
2017-05-25T01:49:28.986Z,14.30
2017-05-25T01:51:58.271Z,14.40
2017-05-25T01:54:27.499Z,14.50
2017-05-25T01:56:56.720Z,14.50
2017-05-25T01:59:25.932Z,14.60
2017-05-25T02:01:55.124Z,14.70
2017-05-25T02:04:24.356Z,14.60
2017-05-25T02:06:53.558Z,14.50
2017-05-25T02:09:22.763Z,14.50
2017-05-25T02:11:51.979Z,14.50
2017-05-25T02:14:21.272Z,14.50
2017-05-25T02:16:50.522Z,14.50
2017-05-25T02:19:20.414Z,14.50
2017-05-25T02:21:49.634Z,14.50
2017-05-25T02:24:18.830Z,14.40
2017-05-25T02:26:48.054Z,14.30
2017-05-25T02:29:17.268Z,14.10
2017-05-25T02:31:46.479Z,14.10
2017-05-25T02:34:15.677Z,14.10
2017-05-25T02:36:44.910Z,14.10
2017-05-25T02:39:14.109Z,14.10
2017-05-25T02:41:43.335Z,14.10
2017-05-25T02:44:12.528Z,14.10
2017-05-25T02:46:41.747Z,14.10
2017-05-25T02:49:10.967Z,14.10
2017-05-25T02:51:40.176Z,14.00
2017-05-25T02:54:09.392Z,14.00
2017-05-25T02:56:38.616Z,14.00
2017-05-25T02:59:07.843Z,13.90
2017-05-25T03:01:37.059Z,14.00
2017-05-25T03:04:06.257Z,13.90
2017-05-25T03:06:36.193Z,13.80
2017-05-25T03:09:06.112Z,13.80
2017-05-25T03:11:36.621Z,13.70
2017-05-25T03:14:05.819Z,13.60
2017-05-25T03:16:35.044Z,13.50
2017-05-25T03:19:04.253Z,13.50
2017-05-25T03:21:33.474Z,13.50
2017-05-25T03:24:02.679Z,13.60
2017-05-25T03:26:32.587Z,13.60
2017-05-25T03:29:01.803Z,13.60
2017-05-25T03:31:31.010Z,13.50
2017-05-25T03:34:00.229Z,13.30
2017-05-25T03:36:29.452Z,13.20
2017-05-25T03:38:58.759Z,13.10
2017-05-25T03:41:27.964Z,13.20
2017-05-25T03:43:57.172Z,13.30
2017-05-25T03:46:27.071Z,13.30
2017-05-25T03:48:56.279Z,13.30
2017-05-25T03:51:25.503Z,13.30
2017-05-25T03:53:54.711Z,13.30
2017-05-25T03:56:23.912Z,13.40
2017-05-25T03:58:53.140Z,13.40
2017-05-25T04:01:22.358Z,13.40
2017-05-25T04:03:51.589Z,13.40
2017-05-25T04:06:20.792Z,13.30
2017-05-25T04:08:50.019Z,13.40
2017-05-25T04:11:19.233Z,13.40
2017-05-25T04:13:48.447Z,13.50
2017-05-25T04:16:17.655Z,13.60
2017-05-25T04:18:46.881Z,13.60
2017-05-25T04:21:16.771Z,13.60
2017-05-25T04:23:46.010Z,13.50
2017-05-25T04:26:15.225Z,13.40
2017-05-25T04:28:44.487Z,13.40
2017-05-25T04:31:13.723Z,13.30
2017-05-25T04:33:42.928Z,13.40
2017-05-25T04:36:12.843Z,13.40
2017-05-25T04:38:42.145Z,13.40
2017-05-25T04:41:12.051Z,13.40
2017-05-25T04:43:41.285Z,13.50
2017-05-25T04:46:10.558Z,13.50
2017-05-25T04:48:39.776Z,13.60
2017-05-25T04:51:09.686Z,13.60
2017-05-25T04:53:38.908Z,13.60
2017-05-25T04:56:08.196Z,13.60
2017-05-25T04:58:37.419Z,13.70
2017-05-25T05:01:06.646Z,13.80
2017-05-25T05:03:35.863Z,13.90
2017-05-25T05:06:05.137Z,14.10
2017-05-25T05:08:34.360Z,14.10
2017-05-25T05:11:03.227Z,14.20
2017-05-25T05:13:32.435Z,14.30
2017-05-25T05:16:01.659Z,14.40
2017-05-25T05:18:31.554Z,14.40
2017-05-25T05:21:00.970Z,14.60
2017-05-25T05:23:30.160Z,14.90
2017-05-25T05:25:59.375Z,15.10
2017-05-25T05:28:28.672Z,15.30
2017-05-25T05:30:57.876Z,15.50
2017-05-25T05:33:27.108Z,15.70
2017-05-25T05:35:56.324Z,15.80
2017-05-25T05:38:25.579Z,15.90
2017-05-25T05:40:54.849Z,16.10
2017-05-25T05:43:24.061Z,16.20
2017-05-25T05:45:53.283Z,16.10
2017-05-25T05:48:22.495Z,16.20
2017-05-25T05:50:51.723Z,16.30
2017-05-25T05:53:20.929Z,16.20
2017-05-25T05:55:50.143Z,16.30
2017-05-25T05:58:19.361Z,16.40
2017-05-25T06:00:48.595Z,16.50
2017-05-25T06:03:17.805Z,16.50
2017-05-25T06:05:47.003Z,16.60
2017-05-25T06:08:16.229Z,16.60
2017-05-25T06:10:45.447Z,16.80
2017-05-25T06:13:14.655Z,16.90
2017-05-25T06:15:43.876Z,16.90
2017-05-25T06:18:13.090Z,17.10
2017-05-25T06:20:42.321Z,17.20
2017-05-25T06:23:11.536Z,17.20
2017-05-25T06:25:40.736Z,17.30
2017-05-25T06:28:09.952Z,17.40
2017-05-25T06:30:39.168Z,17.50
2017-05-25T06:33:08.437Z,17.60
2017-05-25T06:35:37.649Z,17.60
2017-05-25T06:38:06.863Z,18.00
2017-05-25T06:40:36.079Z,18.20
2017-05-25T06:43:05.295Z,18.30
2017-05-25T06:45:34.512Z,18.50
2017-05-25T06:48:04.433Z,18.70
2017-05-25T06:50:33.860Z,18.90
2017-05-25T06:53:03.077Z,19.10
2017-05-25T06:55:32.400Z,19.10
2017-05-25T06:58:01.615Z,19.10
2017-05-25T07:00:30.844Z,19.10
2017-05-25T07:03:00.040Z,18.90
2017-05-25T07:05:29.252Z,18.90
2017-05-25T07:07:58.470Z,18.80
2017-05-25T07:10:28.386Z,18.70
2017-05-25T07:12:57.608Z,18.50
2017-05-25T07:15:26.802Z,18.30
2017-05-25T07:17:56.030Z,18.40
2017-05-25T07:20:25.275Z,18.50
2017-05-25T07:22:54.472Z,18.50
2017-05-25T07:25:23.670Z,18.40
2017-05-25T07:27:53.013Z,18.30
2017-05-25T07:30:22.232Z,18.30
2017-05-25T07:32:51.435Z,18.30
2017-05-25T07:35:20.655Z,18.40
2017-05-25T07:37:49.874Z,18.20
2017-05-25T07:40:19.783Z,18.20
2017-05-25T07:42:49.025Z,18.30
2017-05-25T07:45:18.264Z,18.30
2017-05-25T07:47:47.455Z,18.20
2017-05-25T07:50:16.667Z,18.10
2017-05-25T07:52:45.883Z,18.20
2017-05-25T07:55:14.355Z,18.20
2017-05-25T07:57:43.567Z,18.00
2017-05-25T08:00:12.816Z,17.90
2017-05-25T08:02:42.019Z,18.00
2017-05-25T08:05:10.483Z,17.90
2017-05-25T08:07:39.760Z,18.00
2017-05-25T08:10:08.974Z,17.90
2017-05-25T08:12:38.196Z,17.90
2017-05-25T08:15:07.424Z,17.90
2017-05-25T08:17:35.880Z,17.90
2017-05-25T08:20:05.104Z,18.40
2017-05-25T08:22:34.297Z,18.80
2017-05-25T08:25:03.520Z,19.30
2017-05-25T08:27:32.720Z,19.30
2017-05-25T08:30:01.196Z,19.30
2017-05-25T08:32:30.435Z,19.20
2017-05-25T08:34:59.663Z,19.40
2017-05-25T08:37:28.883Z,19.40
2017-05-25T08:39:58.084Z,19.70
2017-05-25T08:42:27.316Z,19.80
2017-05-25T08:44:56.524Z,19.70
2017-05-25T08:47:25.127Z,19.60
2017-05-25T08:49:55.013Z,20.00
2017-05-25T08:52:24.242Z,20.00
2017-05-25T08:54:53.460Z,20.00
2017-05-25T08:57:21.916Z,20.00
2017-05-25T08:59:50.380Z,20.10
2017-05-25T09:02:19.619Z,20.30
2017-05-25T09:04:48.056Z,20.30
2017-05-25T09:07:17.329Z,19.80
2017-05-25T09:09:46.520Z,20.10
2017-05-25T09:12:15.754Z,20.10
2017-05-25T09:14:44.189Z,20.00
2017-05-25T09:17:13.381Z,19.80
2017-05-25T09:19:41.830Z,19.80
2017-05-25T09:22:11.031Z,20.60
2017-05-25T09:24:40.252Z,20.30
2017-05-25T09:27:09.444Z,20.30
2017-05-25T09:29:37.904Z,20.20
2017-05-25T09:32:06.408Z,20.50
2017-05-25T09:34:35.640Z,20.20
2017-05-25T09:37:04.889Z,20.80
2017-05-25T09:39:33.342Z,20.70
2017-05-25T09:42:01.797Z,21.00
2017-05-25T09:44:30.994Z,20.20
2017-05-25T09:47:00.215Z,21.90
2017-05-25T09:49:29.415Z,20.00
2017-05-25T09:51:57.851Z,20.00
2017-05-25T09:54:27.090Z,20.90
2017-05-25T09:56:56.280Z,21.10
2017-05-25T09:59:25.494Z,20.90
2017-05-25T10:01:54.709Z,20.20
2017-05-25T10:04:23.928Z,20.60
2017-05-25T10:06:53.156Z,20.60
2017-05-25T10:09:23.068Z,20.60
2017-05-25T10:11:52.265Z,21.20
2017-05-25T10:14:21.491Z,21.00
2017-05-25T10:16:50.707Z,21.10
2017-05-25T10:19:19.944Z,21.10
2017-05-25T10:21:49.152Z,21.00
2017-05-25T10:24:18.364Z,21.20
2017-05-25T10:26:47.616Z,21.20
2017-05-25T10:29:16.070Z,21.10
2017-05-25T10:31:45.268Z,21.30
2017-05-25T10:34:14.495Z,21.40
2017-05-25T10:36:43.695Z,21.80
2017-05-25T10:39:12.939Z,21.80
2017-05-25T10:41:42.171Z,21.80
2017-05-25T10:44:11.401Z,22.10
2017-05-25T10:46:40.604Z,21.90
2017-05-25T10:49:09.817Z,22.20
2017-05-25T10:51:39.720Z,21.40
2017-05-25T10:54:08.922Z,21.40
2017-05-25T10:56:38.142Z,21.80
2017-05-25T10:59:07.431Z,21.60
2017-05-25T11:01:36.736Z,21.20
2017-05-25T11:04:05.930Z,21.30
2017-05-25T11:06:35.159Z,21.10
2017-05-25T11:09:03.486Z,20.90
2017-05-25T11:11:32.707Z,20.60
2017-05-25T11:14:01.948Z,21.20
2017-05-25T11:16:31.156Z,21.40
2017-05-25T11:19:00.367Z,21.80
2017-05-25T11:21:29.572Z,21.90
2017-05-25T11:23:58.799Z,21.60
2017-05-25T11:26:28.020Z,21.80
2017-05-25T11:28:57.236Z,22.00
2017-05-25T11:31:26.452Z,21.90
2017-05-25T11:33:55.664Z,21.50
2017-05-25T11:36:24.868Z,21.40
2017-05-25T11:38:54.115Z,20.90
2017-05-25T11:41:23.366Z,21.40
2017-05-25T11:43:52.629Z,22.00
2017-05-25T11:46:21.824Z,22.40
2017-05-25T11:48:50.264Z,22.40
2017-05-25T11:51:20.186Z,22.30
2017-05-25T11:53:49.397Z,22.00
2017-05-25T11:56:18.621Z,21.60
2017-05-25T11:58:47.088Z,21.50
2017-05-25T12:01:16.309Z,21.90
2017-05-25T12:03:45.198Z,22.20
2017-05-25T12:06:14.402Z,22.50
2017-05-25T12:08:43.675Z,22.50
2017-05-25T12:11:12.119Z,22.40
2017-05-25T12:13:41.343Z,21.90
2017-05-25T12:16:09.783Z,21.80
2017-05-25T12:18:39.008Z,22.10
2017-05-25T12:21:07.475Z,22.00
2017-05-25T12:23:36.691Z,22.90
2017-05-25T12:26:05.152Z,22.80
2017-05-25T12:28:34.408Z,22.90
2017-05-25T12:31:02.852Z,22.90
2017-05-25T12:33:32.081Z,23.20
2017-05-25T12:36:01.275Z,22.00
2017-05-25T12:38:30.494Z,21.80
2017-05-25T12:40:58.961Z,21.80
2017-05-25T12:43:28.199Z,22.80
2017-05-25T12:45:57.383Z,23.20
2017-05-25T12:48:25.808Z,23.10
2017-05-25T12:50:55.041Z,23.30
2017-05-25T12:53:24.239Z,23.10
2017-05-25T12:55:53.460Z,23.20
2017-05-25T12:58:23.361Z,22.80
2017-05-25T13:00:52.663Z,22.40
2017-05-25T13:03:21.891Z,22.50
2017-05-25T13:05:51.097Z,22.50
2017-05-25T13:08:20.329Z,22.90
2017-05-25T13:10:49.524Z,23.20
2017-05-25T13:13:18.750Z,23.10
2017-05-25T13:15:48.635Z,23.40
2017-05-25T13:18:17.903Z,23.20
2017-05-25T13:20:47.848Z,23.10
2017-05-25T13:23:17.102Z,23.60
2017-05-25T13:25:46.355Z,23.70
2017-05-25T13:28:15.567Z,24.40
2017-05-25T13:30:44.779Z,23.80
2017-05-25T13:33:14.075Z,23.50
2017-05-25T13:35:43.443Z,23.40
2017-05-25T13:38:12.680Z,24.20
2017-05-25T13:40:41.122Z,24.10
2017-05-25T13:43:10.351Z,24.20
2017-05-25T13:45:38.792Z,24.10
2017-05-25T13:48:07.345Z,23.70
2017-05-25T13:50:36.571Z,23.30
2017-05-25T13:53:05.800Z,23.40
2017-05-25T13:55:34.255Z,23.30
2017-05-25T13:58:02.695Z,23.50
2017-05-25T14:00:31.156Z,23.30
2017-05-25T14:03:00.363Z,23.60
2017-05-25T14:05:28.817Z,23.50
2017-05-25T14:07:58.076Z,24.00
2017-05-25T14:10:27.463Z,24.40
2017-05-25T14:12:56.676Z,24.70
2017-05-25T14:15:25.885Z,24.70
2017-05-25T14:17:55.090Z,24.10
2017-05-25T14:20:24.301Z,24.40
2017-05-25T14:22:53.543Z,25.10
2017-05-25T14:25:22.761Z,25.80
2017-05-25T14:27:51.996Z,26.00
2017-05-25T14:30:21.235Z,25.80
2017-05-25T14:32:50.448Z,25.50
2017-05-25T14:35:19.679Z,25.50
2017-05-25T14:37:48.892Z,25.30
2017-05-25T14:40:18.783Z,25.50
2017-05-25T14:42:48.011Z,25.70
2017-05-25T14:45:17.219Z,26.00
2017-05-25T14:47:46.448Z,25.80
2017-05-25T14:50:14.914Z,25.70
2017-05-25T14:52:44.439Z,25.60
2017-05-25T14:55:13.719Z,25.80
2017-05-25T14:57:42.166Z,25.70
2017-05-25T15:00:11.384Z,27.10
2017-05-25T15:02:40.589Z,27.40
2017-05-25T15:05:09.819Z,27.10
2017-05-25T15:07:39.066Z,26.60
2017-05-25T15:10:08.268Z,26.10
2017-05-25T15:12:37.473Z,26.20
2017-05-25T15:15:05.934Z,26.10
2017-05-25T15:17:35.136Z,25.80
2017-05-25T15:20:03.706Z,25.80
2017-05-25T15:22:32.924Z,25.50
2017-05-25T15:25:02.135Z,25.50
2017-05-25T15:27:31.352Z,25.90
2017-05-25T15:30:00.572Z,26.00
2017-05-25T15:32:29.796Z,26.40
2017-05-25T15:34:59.012Z,25.50
2017-05-25T15:37:27.515Z,25.40
2017-05-25T15:39:56.739Z,25.60
2017-05-25T15:42:26.655Z,25.30
2017-05-25T15:44:55.900Z,25.80
2017-05-25T15:47:24.384Z,25.80
2017-05-25T15:49:53.571Z,25.00
2017-05-25T15:52:22.761Z,25.40
2017-05-25T15:54:51.208Z,25.30
2017-05-25T15:57:19.663Z,25.30
2017-05-25T15:59:48.102Z,26.00
2017-05-25T16:02:17.335Z,26.50
2017-05-25T16:04:46.539Z,26.40
2017-05-25T16:07:15.759Z,26.70
2017-05-25T16:09:45.068Z,25.90
2017-05-25T16:12:14.261Z,24.80
2017-05-25T16:14:43.488Z,24.50
2017-05-25T16:17:12.695Z,23.30
2017-05-25T16:19:42.028Z,23.90
2017-05-25T16:22:11.262Z,24.60
2017-05-25T16:24:40.465Z,25.50
2017-05-25T16:27:09.772Z,25.80
2017-05-25T16:29:38.972Z,25.60
2017-05-25T16:32:08.683Z,24.70
2017-05-25T16:34:37.898Z,23.70
2017-05-25T16:37:07.120Z,23.60
2017-05-25T16:39:36.355Z,23.90
2017-05-25T16:42:05.689Z,24.20
2017-05-25T16:44:34.921Z,23.90
2017-05-25T16:47:04.138Z,23.50
2017-05-25T16:49:33.366Z,23.40
2017-05-25T16:52:02.567Z,23.20
2017-05-25T16:54:31.830Z,22.80
2017-05-25T16:57:01.041Z,22.30
2017-05-25T16:59:30.253Z,22.10
2017-05-25T17:01:59.478Z,22.00
2017-05-25T17:04:29.379Z,22.40
2017-05-25T17:06:58.636Z,23.40
2017-05-25T17:09:27.841Z,24.70
2017-05-25T17:11:57.048Z,24.90
2017-05-25T17:14:26.277Z,24.00
2017-05-25T17:16:54.725Z,23.90
2017-05-25T17:19:23.161Z,23.20
2017-05-25T17:21:52.404Z,22.60
2017-05-25T17:24:21.613Z,22.50
2017-05-25T17:26:50.093Z,22.40
2017-05-25T17:29:19.315Z,21.80
2017-05-25T17:31:48.527Z,21.60
2017-05-25T17:34:17.755Z,21.40
2017-05-25T17:36:46.991Z,21.40
2017-05-25T17:39:16.220Z,21.40
2017-05-25T17:41:45.448Z,21.60
2017-05-25T17:44:14.655Z,21.40
2017-05-25T17:46:43.896Z,21.40
2017-05-25T17:49:13.120Z,21.20
2017-05-25T17:51:41.592Z,21.10
2017-05-25T17:54:10.810Z,21.10
2017-05-25T17:56:40.031Z,21.10
2017-05-25T17:59:09.252Z,20.90
2017-05-25T18:01:37.700Z,20.90
2017-05-25T18:04:06.940Z,21.00
2017-05-25T18:06:36.163Z,20.90
2017-05-25T18:09:06.080Z,21.00
2017-05-25T18:11:34.534Z,21.00
2017-05-25T18:14:03.792Z,20.90
2017-05-25T18:16:33.020Z,20.90
2017-05-25T18:19:02.223Z,20.70
2017-05-25T18:21:30.668Z,20.70
2017-05-25T18:23:59.883Z,20.60
2017-05-25T18:26:29.119Z,20.60
2017-05-25T18:28:57.580Z,20.50
2017-05-25T18:31:26.041Z,20.50
2017-05-25T18:33:55.264Z,20.10
2017-05-25T18:36:23.711Z,20.10
2017-05-25T18:38:52.146Z,20.00
2017-05-25T18:41:21.180Z,19.80
2017-05-25T18:43:50.377Z,19.70
2017-05-25T18:46:18.836Z,19.60
2017-05-25T18:48:47.283Z,19.60
2017-05-25T18:51:16.475Z,19.30
2017-05-25T18:53:45.692Z,19.20
2017-05-25T18:56:14.232Z,19.20
2017-05-25T18:58:42.707Z,19.10
2017-05-25T19:01:11.160Z,19.00
2017-05-25T19:03:40.382Z,18.90
2017-05-25T19:06:09.596Z,18.80
2017-05-25T19:08:38.857Z,18.70
2017-05-25T19:11:08.081Z,18.60
2017-05-25T19:13:37.307Z,18.40
2017-05-25T19:16:06.529Z,18.40
2017-05-25T19:18:35.746Z,18.40
2017-05-25T19:21:04.956Z,18.30
2017-05-25T19:23:34.197Z,18.30
2017-05-25T19:26:03.435Z,18.20
2017-05-25T19:28:32.693Z,18.00
2017-05-25T19:31:01.916Z,18.00
2017-05-25T19:33:31.149Z,18.00
2017-05-25T19:36:00.383Z,17.90
2017-05-25T19:38:29.590Z,17.80
2017-05-25T19:40:58.791Z,17.70
2017-05-25T19:43:28.017Z,17.70
2017-05-25T19:45:57.214Z,17.60
2017-05-25T19:48:26.847Z,17.50
2017-05-25T19:50:56.109Z,17.50
2017-05-25T19:53:25.364Z,17.30
2017-05-25T19:55:54.639Z,17.20
2017-05-25T19:58:24.577Z,17.10
2017-05-25T20:00:54.589Z,16.90
2017-05-25T20:03:24.537Z,16.80
2017-05-25T20:05:54.416Z,16.80
2017-05-25T20:08:24.164Z,16.60
2017-05-25T20:10:54.210Z,16.50
2017-05-25T20:13:24.015Z,16.40
2017-05-25T20:15:53.003Z,16.30
2017-05-25T20:18:22.956Z,16.30
2017-05-25T20:20:52.038Z,16.20
2017-05-25T20:23:22.090Z,16.30
2017-05-25T20:25:51.104Z,16.30
2017-05-25T20:28:21.377Z,16.10
2017-05-25T20:30:50.292Z,16.10
2017-05-25T20:33:20.145Z,15.80
2017-05-25T20:35:50.134Z,15.60
2017-05-25T20:38:20.223Z,15.50
2017-05-25T20:40:49.310Z,15.50
2017-05-25T20:43:19.288Z,15.60
2017-05-25T20:45:49.113Z,15.60
2017-05-25T20:48:19.030Z,15.70
2017-05-25T20:50:48.206Z,15.60
2017-05-25T20:53:18.103Z,15.20
2017-05-25T20:55:47.279Z,15.20
2017-05-25T20:58:16.296Z,15.10
2017-05-25T21:00:44.803Z,15.10
2017-05-25T21:03:14.023Z,15.00
2017-05-25T21:05:43.241Z,15.00
2017-05-25T21:08:12.460Z,15.00
2017-05-25T21:10:42.654Z,15.00
2017-05-25T21:13:12.370Z,15.00
2017-05-25T21:15:42.180Z,15.00
2017-05-25T21:18:12.408Z,15.00
2017-05-25T21:20:41.668Z,15.00
2017-05-25T21:23:10.900Z,14.90
2017-05-25T21:25:39.331Z,14.80
2017-05-25T21:28:08.544Z,14.60
2017-05-25T21:30:36.999Z,14.60
2017-05-25T21:33:06.307Z,14.40
2017-05-25T21:35:36.254Z,14.30
2017-05-25T21:38:06.212Z,14.10
2017-05-25T21:40:36.010Z,14.10
2017-05-25T21:43:05.247Z,14.20
2017-05-25T21:45:34.475Z,14.20
2017-05-25T21:48:03.689Z,14.00
2017-05-25T21:50:32.891Z,14.00
2017-05-25T21:53:02.115Z,14.10
2017-05-25T21:55:31.412Z,14.10
2017-05-25T21:58:00.639Z,14.10
2017-05-25T22:00:29.891Z,14.10
2017-05-25T22:02:59.077Z,14.10
2017-05-25T22:05:29.050Z,14.10
2017-05-25T22:07:58.259Z,14.30
2017-05-25T22:10:27.624Z,14.30
2017-05-25T22:12:56.828Z,14.30
2017-05-25T22:15:26.063Z,14.10
2017-05-25T22:17:55.290Z,14.00
2017-05-25T22:20:24.621Z,13.90
2017-05-25T22:22:53.827Z,13.80
2017-05-25T22:25:23.037Z,13.70
2017-05-25T22:27:52.281Z,13.70
2017-05-25T22:30:21.500Z,13.70
2017-05-25T22:32:50.743Z,13.60
2017-05-25T22:35:19.950Z,13.50
2017-05-25T22:37:49.180Z,13.50
2017-05-25T22:40:18.379Z,13.30
2017-05-25T22:42:47.588Z,13.20
2017-05-25T22:45:16.816Z,13.20
2017-05-25T22:47:46.020Z,13.10
2017-05-25T22:50:15.249Z,13.20
2017-05-25T22:52:44.485Z,13.30
2017-05-25T22:55:13.680Z,13.30
2017-05-25T22:57:42.922Z,13.20
2017-05-25T23:00:11.790Z,13.20
2017-05-25T23:02:41.023Z,13.20
2017-05-25T23:05:10.242Z,13.20
2017-05-25T23:07:39.459Z,13.00
2017-05-25T23:10:08.679Z,13.00
2017-05-25T23:12:37.897Z,13.10
2017-05-25T23:15:07.117Z,13.20
2017-05-25T23:17:36.643Z,13.10
2017-05-25T23:20:05.846Z,13.00
2017-05-25T23:22:35.055Z,12.90
2017-05-25T23:25:04.280Z,12.70
2017-05-25T23:27:33.492Z,12.80
2017-05-25T23:30:02.724Z,12.80
2017-05-25T23:32:31.927Z,12.90
2017-05-25T23:35:01.132Z,12.80
2017-05-25T23:37:29.596Z,12.80
2017-05-25T23:39:58.800Z,12.70
2017-05-25T23:42:28.015Z,12.60
2017-05-25T23:44:57.221Z,12.70
2017-05-25T23:47:25.670Z,12.60
2017-05-25T23:49:54.875Z,12.60
2017-05-25T23:52:24.092Z,12.40
2017-05-25T23:54:53.308Z,12.30
2017-05-25T23:57:21.764Z,12.30
2017-05-25T23:59:51.004Z,12.20
